TAF KEAU
KEAU 280520Z 2806/2906 28008KT P6SM SKC FM290000 VRB03KT P6SM BKN200=
METAR KEAU
WC KEAU
WS KEAU
WV KEAU